createdAt,value
2023-03-22T00:01:58.336Z,100213.98
2023-03-22T00:07:00.427Z,100211.65
2023-03-22T00:12:02.388Z,100205.34
2023-03-22T00:17:04.166Z,100199.09
2023-03-22T00:22:06.310Z,100196.30
2023-03-22T00:27:08.535Z,100186.11
2023-03-22T00:32:10.410Z,100184.04
2023-03-22T00:37:12.184Z,100185.10
2023-03-22T00:42:14.382Z,100180.38
2023-03-22T00:47:16.142Z,100179.39
2023-03-22T00:52:17.920Z,100174.36
2023-03-22T00:57:20.209Z,100170.77
2023-03-22T01:02:29.579Z,100168.70
2023-03-22T01:07:32.771Z,100169.27
2023-03-22T01:12:34.535Z,100164.87
2023-03-22T01:17:36.155Z,100154.65
2023-03-22T01:22:39.279Z,100147.41
2023-03-22T01:27:41.090Z,100139.04
2023-03-22T01:32:42.860Z,100124.55
2023-03-22T01:37:45.352Z,100117.46
2023-03-22T01:42:47.342Z,100113.89
2023-03-22T01:47:57.424Z,100105.77
2023-03-22T01:53:04.511Z,100097.16
2023-03-22T01:58:06.587Z,100089.15
2023-03-22T02:03:09.904Z,100084.09
2023-03-22T02:08:14.433Z,100078.66
2023-03-22T02:13:38.535Z,100071.55
2023-03-22T02:18:55.568Z,100069.14
2023-03-22T02:24:00.416Z,100062.72
2023-03-22T02:29:32.598Z,100059.90
2023-03-22T02:35:12.059Z,100055.81
2023-03-22T02:40:24.735Z,100049.83
2023-03-22T02:45:53.799Z,100052.77
2023-03-22T02:51:05.198Z,100052.48
2023-03-22T02:56:52.272Z,100052.09
2023-03-22T03:01:59.779Z,100042.77
2023-03-22T03:07:06.589Z,100043.10
2023-03-22T03:12:23.977Z,100050.37
2023-03-22T03:17:37.530Z,100047.92
2023-03-22T03:23:04.490Z,100039.95
2023-03-22T03:28:47.025Z,100037.13
2023-03-22T03:34:21.370Z,100036.54
2023-03-22T03:39:27.877Z,100040.55
2023-03-22T03:44:32.289Z,100040.92
2023-03-22T03:49:35.492Z,100039.09
2023-03-22T03:54:37.272Z,100044.63
2023-03-22T03:59:38.947Z,100047.95
2023-03-22T04:04:40.769Z,100047.89
2023-03-22T04:09:42.690Z,100040.52
2023-03-22T04:14:44.481Z,100036.90
2023-03-22T04:19:46.049Z,100038.09
2023-03-22T04:24:49.759Z,100034.05
2023-03-22T04:29:51.835Z,100035.79
2023-03-22T04:34:53.608Z,100036.07
2023-03-22T04:39:55.485Z,100033.20
2023-03-22T04:44:57.467Z,100032.78
2023-03-22T04:49:59.263Z,100028.45
2023-03-22T04:55:01.025Z,100023.30
2023-03-22T05:00:08.510Z,100022.20
2023-03-22T05:05:11.022Z,100020.67
2023-03-22T05:10:12.892Z,100017.30
2023-03-22T05:15:15.003Z,100008.52
2023-03-22T05:20:17.361Z,100005.06
2023-03-22T05:25:19.339Z,99999.69
2023-03-22T05:30:21.657Z,99989.71
2023-03-22T05:35:24.072Z,99985.54
2023-03-22T05:40:26.590Z,99979.70
2023-03-22T05:45:28.803Z,99981.29
2023-03-22T05:50:32.125Z,99975.98
2023-03-22T05:55:35.111Z,99973.77
2023-03-22T06:00:38.204Z,99972.23
2023-03-22T06:05:40.606Z,99976.91
2023-03-22T06:10:42.812Z,99969.48
2023-03-22T06:15:46.202Z,99969.20
2023-03-22T06:20:47.979Z,99969.03
2023-03-22T06:25:49.864Z,99966.13
2023-03-22T06:30:51.766Z,99967.00
2023-03-22T06:35:53.656Z,99962.41
2023-03-22T06:40:56.500Z,99959.55
2023-03-22T06:45:58.625Z,99955.89
2023-03-22T06:51:01.175Z,99956.67
2023-03-22T06:56:03.506Z,99954.15
2023-03-22T07:01:05.999Z,99951.85
2023-03-22T07:06:08.870Z,99955.77
2023-03-22T07:11:10.837Z,99957.76
2023-03-22T07:16:12.947Z,99959.41
2023-03-22T07:21:15.201Z,99956.69
2023-03-22T07:26:16.974Z,99949.58
2023-03-22T07:31:19.054Z,99946.81
2023-03-22T07:36:23.597Z,99938.71
2023-03-22T07:41:26.717Z,99934.54
2023-03-22T07:46:28.409Z,99932.48
2023-03-22T07:51:31.084Z,99931.46
2023-03-22T07:56:32.957Z,99934.83
2023-03-22T08:01:35.075Z,99935.79
2023-03-22T08:06:37.845Z,99930.79
2023-03-22T08:11:40.025Z,99926.17
2023-03-22T08:16:43.817Z,99924.07
2023-03-22T08:21:46.048Z,99916.69
2023-03-22T08:26:50.592Z,99917.61
2023-03-22T08:31:52.769Z,99915.64
2023-03-22T08:36:55.651Z,99913.73
2023-03-22T08:41:58.148Z,99911.08
2023-03-22T08:47:01.663Z,99908.10
2023-03-22T08:52:07.013Z,99905.83
2023-03-22T08:57:11.659Z,99907.77
2023-03-22T09:02:14.102Z,99908.29
2023-03-22T09:07:17.151Z,99912.96
2023-03-22T09:12:18.928Z,99911.81
2023-03-22T09:17:22.452Z,99909.69
2023-03-22T09:22:24.829Z,99909.95
2023-03-22T09:27:27.527Z,99905.05
2023-03-22T09:32:29.217Z,99901.92
2023-03-22T09:37:31.195Z,99903.59
2023-03-22T09:42:46.268Z,99897.89
2023-03-22T09:47:52.356Z,99893.45
2023-03-22T09:52:54.750Z,99893.79
2023-03-22T09:58:07.367Z,99888.77
2023-03-22T10:03:21.010Z,99881.95
2023-03-22T10:08:41.122Z,99878.03
2023-03-22T10:14:20.773Z,99874.48
2023-03-22T10:19:29.316Z,99872.23
2023-03-22T10:24:33.541Z,99875.69
2023-03-22T10:29:41.464Z,99875.86
2023-03-22T10:34:44.053Z,99878.06
2023-03-22T10:39:52.340Z,99879.17
2023-03-22T10:45:05.025Z,99884.41
2023-03-22T10:50:39.066Z,99883.68
2023-03-22T10:55:43.935Z,99877.23
2023-03-22T11:01:11.320Z,99873.06
2023-03-22T11:06:20.522Z,99864.16
2023-03-22T11:11:27.306Z,99865.63
2023-03-22T11:16:31.381Z,99862.13
2023-03-22T11:21:34.038Z,99862.03
2023-03-22T11:26:40.705Z,99859.31
2023-03-22T11:31:54.230Z,99858.52
2023-03-22T11:37:01.277Z,99856.52
2023-03-22T11:42:06.240Z,99854.52
2023-03-22T11:47:11.781Z,99848.63
2023-03-22T11:52:26.249Z,99847.98
2023-03-22T11:57:35.604Z,99849.68
2023-03-22T12:02:48.349Z,99850.39
2023-03-22T12:08:13.747Z,99843.45
2023-03-22T12:13:43.709Z,99840.09
2023-03-22T12:18:51.104Z,99835.19
2023-03-22T12:23:58.514Z,99826.18
2023-03-22T12:29:15.746Z,99812.32
2023-03-22T12:34:21.712Z,99809.14
2023-03-22T12:39:34.665Z,99809.02
2023-03-22T12:44:44.927Z,99811.48
2023-03-22T12:50:11.695Z,99812.87
2023-03-22T12:55:35.802Z,99811.41
2023-03-22T13:00:47.533Z,99805.93
2023-03-22T13:06:01.459Z,99804.62
2023-03-22T13:11:04.832Z,99801.06
2023-03-22T13:16:10.354Z,99802.15
2023-03-22T13:21:14.197Z,99801.61
2023-03-22T13:26:17.264Z,99797.39
2023-03-22T13:31:41.502Z,99796.52
2023-03-22T13:36:55.931Z,99794.23
2023-03-22T13:42:36.306Z,99795.80
2023-03-22T13:47:46.414Z,99789.91
2023-03-22T13:52:59.312Z,99786.05
2023-03-22T13:58:02.518Z,99782.95
2023-03-22T14:03:13.183Z,99778.40
2023-03-22T14:08:25.236Z,99769.61
2023-03-22T14:13:42.143Z,99766.40
2023-03-22T14:18:47.311Z,99755.39
